^^
Your Local Weather - Clay, NY Station Historical Data
Daily Summary for June 10, 2017 Units:  English    Metric   Both
« Previous Day
Next Day »
Daily Weekly Monthly Yearly Custom
  High: Low: Average:
Temperature: 82.5 °F 57.8 °F 70 °F
Dew Point: 65.1 °F 52.5 °F 57.9 °F
Humidity: 87% 46% 68%
Wind Speed: 4.0mph 0.0mph 0.9mph
Wind Gust: 10.0mph - -
Wind- - SW
Pressure: 29.88 in 29.80 in -
Precipitation: 0.00 in    
Historical Graphs
 
 
Tabular Data for June 10, 2017
Time Temperature Dew Point Pressure Wind Wind Speed Wind Gust Humidity Rainfall Rate (Hourly) solar
00:02 59.5 °F 53.0 °F 29.80 in Calm     79% 0.00 in 0 W/m2
00:08 59.4 °F 52.9 °F 29.80 in Calm     79% 0.00 in 0 W/m2
00:14 59.6 °F 53.4 °F 29.80 in Calm     80% 0.00 in 0 W/m2
00:20 59.7 °F 53.9 °F 29.80 in Calm     81% 0.00 in 0 W/m2
00:26 59.7 °F 53.5 °F 29.80 in Calm     80% 0.00 in 0 W/m2
00:32 59.9 °F 54.1 °F 29.80 in Calm     81% 0.00 in 0 W/m2
00:38 60.0 °F 53.8 °F 29.80 in Calm     80% 0.00 in 0 W/m2
00:44 60.1 °F 54.2 °F 29.80 in Calm     81% 0.00 in 0 W/m2
00:50 60.0 °F 53.8 °F 29.81 in Calm     80% 0.00 in 0 W/m2
00:56 59.8 °F 53.6 °F 29.81 in Calm     80% 0.00 in 0 W/m2
01:02 59.8 °F 53.6 °F 29.81 in Calm     80% 0.00 in 0 W/m2
01:08 59.7 °F 53.2 °F 29.81 in Calm     79% 0.00 in 0 W/m2
01:14 59.7 °F 53.2 °F 29.81 in Calm     79% 0.00 in 0 W/m2
01:20 59.8 °F 53.3 °F 29.81 in Calm     79% 0.00 in 0 W/m2
01:26 59.9 °F 53.7 °F 29.81 in Calm     80% 0.00 in 0 W/m2
01:32 60.0 °F 54.5 °F 29.81 in Calm     82% 0.00 in 0 W/m2
01:38 60.0 °F 54.5 °F 29.81 in Calm     82% 0.00 in 0 W/m2
01:44 59.9 °F 54.4 °F 29.81 in Calm     82% 0.00 in 0 W/m2
01:50 59.9 °F 54.4 °F 29.81 in Calm     82% 0.00 in 0 W/m2
01:56 59.8 °F 54.3 °F 29.81 in Calm     82% 0.00 in 0 W/m2
02:02 59.7 °F 53.9 °F 29.81 in Calm     81% 0.00 in 0 W/m2
02:08 59.7 °F 53.9 °F 29.81 in Calm     81% 0.00 in 0 W/m2
02:14 59.7 °F 53.9 °F 29.82 in Calm     81% 0.00 in 0 W/m2
02:20 59.7 °F 53.9 °F 29.82 in Calm     81% 0.00 in 0 W/m2
02:26 59.5 °F 53.3 °F 29.82 in Calm     80% 0.00 in 0 W/m2
02:32 59.5 °F 54.0 °F 29.82 in Calm     82% 0.00 in 0 W/m2
02:38 59.3 °F 53.8 °F 29.82 in Calm     82% 0.00 in 0 W/m2
02:44 59.1 °F 53.6 °F 29.82 in Calm     82% 0.00 in 0 W/m2
02:50 58.9 °F 52.7 °F 29.82 in Calm     80% 0.00 in 0 W/m2
02:56 58.9 °F 53.1 °F 29.82 in Calm     81% 0.00 in 0 W/m2
03:02 58.9 °F 53.1 °F 29.82 in Calm     81% 0.00 in 0 W/m2
03:08 58.7 °F 52.5 °F 29.82 in Calm     80% 0.00 in 0 W/m2
03:14 58.6 °F 52.8 °F 29.82 in Calm     81% 0.00 in 0 W/m2
03:20 58.5 °F 53.0 °F 29.82 in Calm     82% 0.00 in 0 W/m2
03:26 58.6 °F 53.8 °F 29.82 in Calm     84% 0.00 in 0 W/m2
03:32 58.4 °F 53.3 °F 29.82 in Calm     83% 0.00 in 0 W/m2
03:38 58.2 °F 53.1 °F 29.82 in Calm     83% 0.00 in 0 W/m2
03:44 58.1 °F 53.0 °F 29.82 in Calm     83% 0.00 in 0 W/m2
03:50 58.0 °F 52.9 °F 29.81 in Calm     83% 0.00 in 0 W/m2
04:02 58.1 °F 53.0 °F 29.82 in Calm     83% 0.00 in 0 W/m2
04:08 58.0 °F 52.9 °F 29.82 in Calm     83% 0.00 in 0 W/m2
04:14 58.0 °F 52.9 °F 29.82 in Calm     83% 0.00 in 0 W/m2
04:20 58.0 °F 52.9 °F 29.82 in Calm     83% 0.00 in 0 W/m2
04:26 58.0 °F 52.9 °F 29.82 in Calm     83% 0.00 in 0 W/m2
04:32 58.1 °F 53.0 °F 29.82 in Calm     83% 0.00 in 0 W/m2
04:38 58.3 °F 53.5 °F 29.82 in Calm     84% 0.00 in 0 W/m2
04:44 58.4 °F 53.6 °F 29.82 in Calm     84% 0.00 in 0 W/m2
04:50 58.4 °F 53.6 °F 29.82 in Calm     84% 0.00 in 0 W/m2
04:56 58.5 °F 53.7 °F 29.82 in Calm     84% 0.00 in 0 W/m2
05:02 58.6 °F 54.1 °F 29.82 in Calm     85% 0.00 in 0 W/m2
05:08 58.6 °F 54.1 °F 29.83 in Calm     85% 0.00 in 0 W/m2
05:14 58.6 °F 53.8 °F 29.83 in Calm     84% 0.00 in 0 W/m2
05:20 58.6 °F 54.1 °F 29.83 in Calm     85% 0.00 in 0 W/m2
05:26 58.6 °F 53.8 °F 29.83 in Calm     84% 0.00 in 0 W/m2
05:32 58.5 °F 54.0 °F 29.82 in Calm     85% 0.00 in 0 W/m2
05:38 58.3 °F 53.5 °F 29.83 in Calm     84% 0.00 in 7 W/m2
05:44 58.3 °F 53.8 °F 29.83 in Calm     85% 0.00 in 9 W/m2
05:50 58.3 °F 54.1 °F 29.83 in Calm     86% 0.00 in 12 W/m2
05:56 58.1 °F 54.2 °F 29.83 in Calm     87% 0.00 in 21 W/m2
06:02 57.9 °F 54.1 °F 29.84 in Calm     87% 0.00 in 32 W/m2
06:08 57.8 °F 54.0 °F 29.84 in Calm     87% 0.00 in 40 W/m2
06:14 57.9 °F 54.1 °F 29.84 in Calm     87% 0.00 in 44 W/m2
06:20 58.0 °F 54.2 °F 29.85 in Calm     87% 0.00 in 67 W/m2
06:26 58.5 °F 54.6 °F 29.84 in Calm     87% 0.00 in 81 W/m2
06:32 58.9 °F 55.0 °F 29.84 in Calm     87% 0.00 in 46 W/m2
06:38 59.4 °F 55.5 °F 29.84 in Calm     87% 0.00 in 51 W/m2
06:44 59.6 °F 55.7 °F 29.84 in West 1.0 mph 1.0 mph 87% 0.00 in 47 W/m2
06:50 59.6 °F 55.7 °F 29.84 in Calm     87% 0.00 in 91 W/m2
06:56 60.3 °F 56.4 °F 29.84 in Calm     87% 0.00 in 179 W/m2
07:02 61.2 °F 57.3 °F 29.85 in Calm     87% 0.00 in 267 W/m2
07:08 62.2 °F 57.6 °F 29.86 in Calm     85% 0.00 in 139 W/m2
07:14 62.6 °F 57.7 °F 29.85 in Calm     84% 0.00 in 253 W/m2
07:20 63.6 °F 59.0 °F 29.85 in Calm     85% 0.00 in 156 W/m2
07:26 64.1 °F 59.2 °F 29.85 in Calm     84% 0.00 in 116 W/m2
07:32 64.3 °F 58.7 °F 29.86 in Calm     82% 0.00 in 79 W/m2
07:38 64.2 °F 58.6 °F 29.86 in Calm     82% 0.00 in 62 W/m2
07:44 63.8 °F 58.2 °F 29.86 in Calm     82% 0.00 in 83 W/m2
07:50 63.4 °F 58.1 °F 29.86 in Calm     83% 0.00 in 98 W/m2
07:56 63.6 °F 58.7 °F 29.86 in Calm     84% 0.00 in 107 W/m2
08:02 63.9 °F 58.6 °F 29.86 in Calm     83% 0.00 in 105 W/m2
08:08 64.2 °F 59.3 °F 29.86 in Calm     84% 0.00 in 156 W/m2
08:14 64.6 °F 59.3 °F 29.87 in Calm     83% 0.00 in 176 W/m2
08:20 65.5 °F 59.2 °F 29.87 in Calm     80% 0.00 in 155 W/m2
08:26 66.2 °F 59.5 °F 29.87 in Calm     79% 0.00 in 155 W/m2
08:32 66.6 °F 59.2 °F 29.87 in Calm     77% 0.00 in 225 W/m2
08:38 67.6 °F 59.4 °F 29.87 in Calm     75% 0.00 in 422 W/m2
08:44 68.8 °F 58.2 °F 29.87 in Calm   2.0 mph 69% 0.00 in 580 W/m2
08:50 69.9 °F 56.7 °F 29.87 in SSW 1.0 mph 4.0 mph 63% 0.00 in 188 W/m2
08:56 70.3 °F 56.2 °F 29.87 in South 3.0 mph 4.0 mph 61% 0.00 in 503 W/m2
09:02 71.1 °F 57.9 °F 29.87 in SW 2.0 mph 4.0 mph 63% 0.00 in 621 W/m2
09:08 71.5 °F 56.9 °F 29.87 in WSW 1.0 mph 4.0 mph 60% 0.00 in 290 W/m2
09:14 71.4 °F 56.3 °F 29.87 in SSW 2.0 mph 6.0 mph 59% 0.00 in 552 W/m2
09:20 72.0 °F 57.4 °F 29.87 in SSW 2.0 mph 3.0 mph 60% 0.00 in 568 W/m2
09:26 72.2 °F 57.5 °F 29.87 in SSW 3.0 mph 6.0 mph 60% 0.00 in 591 W/m2
09:32 72.5 °F 56.9 °F 29.87 in West 3.0 mph 4.0 mph 58% 0.00 in 605 W/m2
09:38 73.2 °F 58.5 °F 29.86 in SSW 1.0 mph 4.0 mph 60% 0.00 in 638 W/m2
09:44 73.1 °F 56.5 °F 29.86 in SSW 2.0 mph 7.0 mph 56% 0.00 in 631 W/m2
09:50 73.1 °F 57.0 °F 29.86 in SW 3.0 mph 3.0 mph 57% 0.00 in 654 W/m2
09:56 73.3 °F 57.6 °F 29.86 in WSW 2.0 mph 3.0 mph 58% 0.00 in 663 W/m2
10:02 73.6 °F 56.4 °F 29.86 in SSW 2.0 mph 2.0 mph 55% 0.00 in 643 W/m2
10:08 73.7 °F 57.0 °F 29.86 in SSW 3.0 mph 6.0 mph 56% 0.00 in 728 W/m2
10:14 73.7 °F 57.0 °F 29.86 in SW 3.0 mph 3.0 mph 56% 0.00 in 737 W/m2
10:20 74.2 °F 56.0 °F 29.86 in SW 3.0 mph 3.0 mph 53% 0.00 in 738 W/m2
10:26 74.5 °F 57.3 °F 29.86 in SW 2.0 mph 3.0 mph 55% 0.00 in 761 W/m2
10:32 74.6 °F 56.9 °F 29.87 in SSW 2.0 mph 6.0 mph 54% 0.00 in 770 W/m2
10:38 75.1 °F 57.3 °F 29.87 in WSW 2.0 mph 6.0 mph 54% 0.00 in 793 W/m2
10:46 74.9 °F 57.1 °F 29.86 in SW 3.0 mph 5.0 mph 54% 0.00 in 809 W/m2
10:52 75.2 °F 58.4 °F 29.87 in NNW 2.0 mph 2.0 mph 56% 0.00 in 784 W/m2
10:58 75.6 °F 58.3 °F 29.87 in WSW 1.0 mph 6.0 mph 55% 0.00 in 830 W/m2
11:04 75.2 °F 57.4 °F 29.87 in NW 2.0 mph 2.0 mph 54% 0.00 in 886 W/m2
11:10 75.7 °F 58.9 °F 29.87 in WSW 2.0 mph 4.0 mph 56% 0.00 in 951 W/m2
11:16 75.3 °F 57.0 °F 29.88 in SW 2.0 mph 4.0 mph 53% 0.00 in 659 W/m2
11:22 75.8 °F 60.4 °F 29.88 in SSW 2.0 mph 4.0 mph 59% 0.00 in 960 W/m2
11:28 76.5 °F 57.6 °F 29.88 in WSW 3.0 mph 4.0 mph 52% 0.00 in 956 W/m2
11:34 76.0 °F 57.6 °F 29.87 in SW 2.0 mph 5.0 mph 53% 0.00 in 932 W/m2
11:40 76.4 °F 58.5 °F 29.87 in NW 2.0 mph 2.0 mph 54% 0.00 in 911 W/m2
11:46 76.8 °F 59.9 °F 29.87 in WNW 1.0 mph 2.0 mph 56% 0.00 in 888 W/m2
11:52 77.2 °F 57.7 °F 29.87 in NW 1.0 mph 5.0 mph 51% 0.00 in 928 W/m2
11:58 76.9 °F 56.8 °F 29.87 in SSW 3.0 mph 5.0 mph 50% 0.00 in 970 W/m2
12:04 77.1 °F 58.1 °F 29.87 in SW 3.0 mph 4.0 mph 52% 0.00 in 911 W/m2
12:10 77.2 °F 57.7 °F 29.87 in NW 1.0 mph 1.0 mph 51% 0.00 in 983 W/m2
12:16 77.0 °F 60.1 °F 29.87 in WSW 2.0 mph 3.0 mph 56% 0.00 in 991 W/m2
12:22 76.9 °F 58.5 °F 29.87 in West 2.0 mph 2.0 mph 53% 0.00 in 956 W/m2
12:28 77.4 °F 60.0 °F 29.87 in SSW 2.0 mph 6.0 mph 55% 0.00 in 958 W/m2
12:34 77.6 °F 57.5 °F 29.87 in SW 2.0 mph 3.0 mph 50% 0.00 in 977 W/m2
12:40 77.6 °F 60.7 °F 29.87 in NNW 3.0 mph 3.0 mph 56% 0.00 in 838 W/m2
12:46 77.2 °F 57.7 °F 29.87 in West 2.0 mph 6.0 mph 51% 0.00 in 963 W/m2
12:52 77.7 °F 57.0 °F 29.87 in WSW 2.0 mph 3.0 mph 49% 0.00 in 960 W/m2
13:00 77.2 °F 58.7 °F 29.86 in SSE 2.0 mph 2.0 mph 53% 0.00 in 1032 W/m2
13:06 78.0 °F 60.0 °F 29.87 in SW 2.0 mph 3.0 mph 54% 0.00 in 1007 W/m2
13:12 77.5 °F 57.4 °F 29.87 in WSW 1.0 mph 1.0 mph 50% 0.00 in 216 W/m2
13:18 77.8 °F 58.8 °F 29.86 in WSW 1.0 mph 4.0 mph 52% 0.00 in 1021 W/m2
13:24 78.0 °F 59.5 °F 29.87 in SW 2.0 mph 7.0 mph 53% 0.00 in 1011 W/m2
13:30 78.8 °F 61.3 °F 29.86 in WSW 3.0 mph 3.0 mph 55% 0.00 in 984 W/m2
13:36 78.7 °F 59.0 °F 29.86 in WSW 1.0 mph 10.0 mph 51% 0.00 in 188 W/m2
13:42 78.8 °F 59.1 °F 29.87 in WSW 2.0 mph 4.0 mph 51% 0.00 in 223 W/m2
13:48 78.5 °F 58.3 °F 29.86 in South 2.0 mph 7.0 mph 50% 0.00 in 332 W/m2
13:54 78.8 °F 59.1 °F 29.86 in South 4.0 mph 6.0 mph 51% 0.00 in 1121 W/m2
14:00 79.5 °F 58.7 °F 29.86 in West 4.0 mph 4.0 mph 49% 0.00 in 1151 W/m2
14:06 78.5 °F 58.9 °F 29.86 in SW 2.0 mph 4.0 mph 51% 0.00 in 287 W/m2
14:12 78.2 °F 58.0 °F 29.86 in SW 2.0 mph 2.0 mph 50% 0.00 in 371 W/m2
14:18 78.0 °F 58.4 °F 29.86 in SW 2.0 mph 7.0 mph 51% 0.00 in 311 W/m2
14:24 78.9 °F 59.8 °F 29.86 in SW 3.0 mph 6.0 mph 52% 0.00 in 294 W/m2
14:30 79.3 °F 60.1 °F 29.86 in WSW 3.0 mph 6.0 mph 52% 0.00 in 1014 W/m2
14:36 79.8 °F 60.1 °F 29.85 in WSW 3.0 mph 6.0 mph 51% 0.00 in 940 W/m2
14:42 79.0 °F 59.3 °F 29.85 in South 2.0 mph 4.0 mph 51% 0.00 in 214 W/m2
14:48 78.9 °F 60.3 °F 29.85 in South 2.0 mph 6.0 mph 53% 0.00 in 181 W/m2
14:54 78.9 °F 59.8 °F 29.85 in SSE 3.0 mph 6.0 mph 52% 0.00 in 640 W/m2
15:00 78.7 °F 60.1 °F 29.85 in South 2.0 mph 2.0 mph 53% 0.00 in 232 W/m2
15:06 79.1 °F 58.3 °F 29.85 in WSW 2.0 mph 6.0 mph 49% 0.00 in 223 W/m2
15:12 79.4 °F 59.1 °F 29.85 in SW 3.0 mph 4.0 mph 50% 0.00 in 770 W/m2
15:18 79.5 °F 59.8 °F 29.85 in SW 3.0 mph 4.0 mph 51% 0.00 in 686 W/m2
15:24 79.6 °F 59.9 °F 29.85 in WSW 2.0 mph 3.0 mph 51% 0.00 in 171 W/m2
15:30 79.6 °F 59.3 °F 29.85 in SW 2.0 mph 2.0 mph 50% 0.00 in 895 W/m2
15:36 80.2 °F 59.3 °F 29.85 in WSW 3.0 mph 4.0 mph 49% 0.00 in 209 W/m2
15:42 80.6 °F 59.7 °F 29.85 in WSW 2.0 mph 3.0 mph 49% 0.00 in 800 W/m2
15:48 80.7 °F 59.2 °F 29.85 in SW 3.0 mph 6.0 mph 48% 0.00 in 174 W/m2
15:54 80.4 °F 59.5 °F 29.85 in WSW 3.0 mph 4.0 mph 49% 0.00 in 197 W/m2
16:00 80.3 °F 58.8 °F 29.84 in SSE 3.0 mph 4.0 mph 48% 0.00 in 153 W/m2
16:06 80.7 °F 60.9 °F 29.84 in WSW 3.0 mph 4.0 mph 51% 0.00 in 737 W/m2
16:12 81.6 °F 60.6 °F 29.84 in SW 2.0 mph 2.0 mph 49% 0.00 in 677 W/m2
16:18 82.0 °F 61.0 °F 29.84 in SW 1.0 mph 4.0 mph 49% 0.00 in 668 W/m2
16:24 82.3 °F 59.4 °F 29.84 in SW 1.0 mph 5.0 mph 46% 0.00 in 601 W/m2
16:30 82.3 °F 60.1 °F 29.84 in SSW 2.0 mph 2.0 mph 47% 0.00 in 141 W/m2
16:36 82.3 °F 59.4 °F 29.84 in SSW 2.0 mph 3.0 mph 46% 0.00 in 188 W/m2
16:42 82.3 °F 60.6 °F 29.84 in SW 3.0 mph 5.0 mph 48% 0.00 in 221 W/m2
16:48 82.5 °F 60.2 °F 29.83 in NW 2.0 mph 5.0 mph 47% 0.00 in 279 W/m2
16:54 82.3 °F 60.1 °F 29.83 in SSW 2.0 mph 5.0 mph 47% 0.00 in 475 W/m2
17:00 82.1 °F 59.3 °F 29.83 in WSW 3.0 mph 3.0 mph 46% 0.00 in 120 W/m2
17:06 81.6 °F 61.7 °F 29.83 in NW 3.0 mph 4.0 mph 51% 0.00 in 102 W/m2
17:12 81.4 °F 59.8 °F 29.83 in SW 3.0 mph 3.0 mph 48% 0.00 in 91 W/m2
17:18 80.9 °F 59.9 °F 29.83 in SSW 2.0 mph 5.0 mph 49% 0.00 in 137 W/m2
17:24 80.6 °F 59.7 °F 29.83 in WSW 2.0 mph 7.0 mph 49% 0.00 in 141 W/m2
17:30 80.9 °F 58.8 °F 29.83 in West 2.0 mph 4.0 mph 47% 0.00 in 90 W/m2
17:36 81.2 °F 58.5 °F 29.83 in WSW 3.0 mph 4.0 mph 46% 0.00 in 83 W/m2
17:42 81.3 °F 59.7 °F 29.83 in SSW 3.0 mph 6.0 mph 48% 0.00 in 77 W/m2
17:48 81.3 °F 60.3 °F 29.83 in WSW 1.0 mph 6.0 mph 49% 0.00 in 88 W/m2
17:54 81.1 °F 60.7 °F 29.83 in SSW 1.0 mph 1.0 mph 50% 0.00 in 102 W/m2
18:00 81.4 °F 59.8 °F 29.83 in SW 1.0 mph 1.0 mph 48% 0.00 in 109 W/m2
18:12 81.5 °F 60.5 °F 29.83 in Calm   1.0 mph 49% 0.00 in 70 W/m2
18:18 81.3 °F 59.7 °F 29.82 in Calm   1.0 mph 48% 0.00 in 65 W/m2
18:24 81.1 °F 60.7 °F 29.82 in Calm     50% 0.00 in 63 W/m2
18:30 80.8 °F 60.4 °F 29.83 in Calm   1.0 mph 50% 0.00 in 67 W/m2
18:36 80.5 °F 60.1 °F 29.83 in Calm   2.0 mph 50% 0.00 in 79 W/m2
18:42 80.6 °F 60.2 °F 29.83 in WSW 1.0 mph 1.0 mph 50% 0.00 in 62 W/m2
18:48 80.7 °F 60.9 °F 29.83 in Calm   1.0 mph 51% 0.00 in 62 W/m2
18:54 80.7 °F 60.9 °F 29.83 in Calm     51% 0.00 in 56 W/m2
19:00 80.6 °F 60.8 °F 29.83 in Calm     51% 0.00 in 49 W/m2
19:06 80.5 °F 59.6 °F 29.83 in Calm   2.0 mph 49% 0.00 in 46 W/m2
19:12 80.5 °F 60.1 °F 29.83 in Calm     50% 0.00 in 37 W/m2
19:18 80.4 °F 60.1 °F 29.84 in Calm     50% 0.00 in 32 W/m2
19:24 80.1 °F 63.5 °F 29.84 in Calm     57% 0.00 in 40 W/m2
19:30 79.5 °F 61.4 °F 29.85 in Calm     54% 0.00 in 47 W/m2
19:36 78.8 °F 65.1 °F 29.85 in Calm     63% 0.00 in 46 W/m2
19:42 78.1 °F 64.0 °F 29.85 in Calm     62% 0.00 in 44 W/m2
19:48 77.1 °F 64.0 °F 29.85 in Calm     64% 0.00 in 40 W/m2
19:54 76.7 °F 64.0 °F 29.85 in Calm     65% 0.00 in 39 W/m2
20:00 76.3 °F 64.1 °F 29.85 in Calm     66% 0.00 in 30 W/m2
20:06 75.7 °F 64.4 °F 29.85 in Calm     68% 0.00 in 21 W/m2
20:12 75.2 °F 63.9 °F 29.85 in Calm     68% 0.00 in 18 W/m2
20:18 74.7 °F 63.4 °F 29.86 in Calm     68% 0.00 in 14 W/m2
20:24 74.4 °F 63.6 °F 29.85 in Calm     69% 0.00 in 11 W/m2
20:30 73.4 °F 63.0 °F 29.86 in Calm     70% 0.00 in 9 W/m2
20:36 72.8 °F 62.8 °F 29.85 in Calm     71% 0.00 in 5 W/m2
20:42 72.3 °F 62.4 °F 29.86 in Calm     71% 0.00 in 0 W/m2
20:48 71.8 °F 62.3 °F 29.86 in Calm     72% 0.00 in 0 W/m2
20:54 71.4 °F 62.3 °F 29.86 in Calm     73% 0.00 in 0 W/m2
21:00 70.8 °F 62.5 °F 29.86 in Calm     75% 0.00 in 0 W/m2
21:06 70.2 °F 62.3 °F 29.86 in Calm     76% 0.00 in 0 W/m2
21:12 69.9 °F 62.0 °F 29.86 in Calm     76% 0.00 in 0 W/m2
21:18 69.6 °F 62.4 °F 29.86 in Calm     78% 0.00 in 0 W/m2
21:24 69.2 °F 61.7 °F 29.86 in Calm     77% 0.00 in 0 W/m2
21:30 68.8 °F 61.7 °F 29.86 in Calm     78% 0.00 in 0 W/m2
21:36 68.3 °F 61.5 °F 29.86 in Calm     79% 0.00 in 0 W/m2
21:42 68.0 °F 61.2 °F 29.87 in Calm     79% 0.00 in 0 W/m2
21:48 67.8 °F 61.4 °F 29.87 in Calm     80% 0.00 in 0 W/m2
21:54 67.7 °F 61.3 °F 29.87 in Calm     80% 0.00 in 0 W/m2
22:00 67.6 °F 61.2 °F 29.87 in Calm     80% 0.00 in 0 W/m2
22:06 67.5 °F 61.5 °F 29.87 in Calm     81% 0.00 in 0 W/m2
22:12 67.4 °F 61.4 °F 29.87 in Calm     81% 0.00 in 0 W/m2
22:18 67.3 °F 61.3 °F 29.87 in Calm     81% 0.00 in 0 W/m2
22:24 67.3 °F 61.3 °F 29.87 in Calm     81% 0.00 in 0 W/m2
22:30 67.4 °F 61.4 °F 29.87 in Calm     81% 0.00 in 0 W/m2
22:36 67.2 °F 61.2 °F 29.87 in Calm     81% 0.00 in 0 W/m2
22:42 67.1 °F 61.1 °F 29.87 in Calm     81% 0.00 in 0 W/m2
22:48 66.8 °F 60.8 °F 29.86 in Calm     81% 0.00 in 0 W/m2
22:54 66.4 °F 60.0 °F 29.86 in Calm   1.0 mph 80% 0.00 in 0 W/m2
23:00 66.3 °F 59.6 °F 29.86 in Calm     79% 0.00 in 0 W/m2
23:06 66.2 °F 59.1 °F 29.86 in Calm     78% 0.00 in 0 W/m2
23:12 66.2 °F 59.1 °F 29.86 in Calm     78% 0.00 in 0 W/m2
23:18 66.2 °F 58.4 °F 29.86 in Calm     76% 0.00 in 0 W/m2
23:24 66.3 °F 58.1 °F 29.86 in Calm     75% 0.00 in 0 W/m2
23:30 66.3 °F 57.4 °F 29.86 in Calm     73% 0.00 in 0 W/m2
23:36 66.5 °F 58.0 °F 29.86 in Calm     74% 0.00 in 0 W/m2
23:42 66.4 °F 58.2 °F 29.86 in Calm     75% 0.00 in 0 W/m2
23:48 66.2 °F 58.4 °F 29.87 in Calm     76% 0.00 in 0 W/m2
23:54 66.0 °F 57.5 °F 29.87 in Calm     74% 0.00 in 0 W/m2
Country Meadow, Clay, NY, USA
Compliments of Weather Underground - 2 mb